sensor_id;sensor_type;location;lat;lon;timestamp;temperature;humidity
13673;DHT22;6909;52.202;9.876;2022-07-29T00:00:05;15.70;1.00
13673;DHT22;6909;52.202;9.876;2022-07-29T00:02:32;15.70;1.00
13673;DHT22;6909;52.202;9.876;2022-07-29T00:04:59;15.70;1.00
13673;DHT22;6909;52.202;9.876;2022-07-29T00:07:25;15.70;1.00
13673;DHT22;6909;52.202;9.876;2022-07-29T00:09:52;15.70;1.00
13673;DHT22;6909;52.202;9.876;2022-07-29T00:12:19;15.70;1.00
13673;DHT22;6909;52.202;9.876;2022-07-29T00:14:47;15.70;1.00
13673;DHT22;6909;52.202;9.876;2022-07-29T00:17:14;15.70;1.00
13673;DHT22;6909;52.202;9.876;2022-07-29T00:19:41;15.70;1.00
13673;DHT22;6909;52.202;9.876;2022-07-29T00:22:07;15.70;1.00
13673;DHT22;6909;52.202;9.876;2022-07-29T00:24:34;15.60;1.00
13673;DHT22;6909;52.202;9.876;2022-07-29T00:27:01;15.70;1.00
13673;DHT22;6909;52.202;9.876;2022-07-29T00:29:27;15.70;1.00
13673;DHT22;6909;52.202;9.876;2022-07-29T00:31:55;15.70;1.00
13673;DHT22;6909;52.202;9.876;2022-07-29T00:34:22;15.60;1.00
13673;DHT22;6909;52.202;9.876;2022-07-29T00:37:06;15.60;1.00
13673;DHT22;6909;52.202;9.876;2022-07-29T00:39:33;15.60;1.00
13673;DHT22;6909;52.202;9.876;2022-07-29T00:42:05;15.60;1.00
13673;DHT22;6909;52.202;9.876;2022-07-29T00:44:36;15.50;1.00
13673;DHT22;6909;52.202;9.876;2022-07-29T00:47:04;15.40;1.00
13673;DHT22;6909;52.202;9.876;2022-07-29T00:49:32;15.30;1.00
13673;DHT22;6909;52.202;9.876;2022-07-29T00:52:00;15.30;1.00
13673;DHT22;6909;52.202;9.876;2022-07-29T00:54:27;15.20;1.00
13673;DHT22;6909;52.202;9.876;2022-07-29T00:56:55;15.20;1.00
13673;DHT22;6909;52.202;9.876;2022-07-29T00:59:22;15.30;1.00
13673;DHT22;6909;52.202;9.876;2022-07-29T01:01:49;15.40;1.00
13673;DHT22;6909;52.202;9.876;2022-07-29T01:04:18;15.40;1.00
13673;DHT22;6909;52.202;9.876;2022-07-29T01:06:45;15.40;1.00
13673;DHT22;6909;52.202;9.876;2022-07-29T01:09:13;15.40;1.00
13673;DHT22;6909;52.202;9.876;2022-07-29T01:11:40;15.40;1.00
13673;DHT22;6909;52.202;9.876;2022-07-29T01:14:08;15.50;1.00
13673;DHT22;6909;52.202;9.876;2022-07-29T01:16:41;15.50;1.00
13673;DHT22;6909;52.202;9.876;2022-07-29T01:19:19;15.50;1.00
13673;DHT22;6909;52.202;9.876;2022-07-29T01:21:51;15.50;1.00
13673;DHT22;6909;52.202;9.876;2022-07-29T01:24:37;15.50;1.00
13673;DHT22;6909;52.202;9.876;2022-07-29T01:27:22;15.50;1.00
13673;DHT22;6909;52.202;9.876;2022-07-29T01:29:56;15.40;1.00
13673;DHT22;6909;52.202;9.876;2022-07-29T01:32:26;15.40;1.00
13673;DHT22;6909;52.202;9.876;2022-07-29T01:34:58;15.30;1.00
13673;DHT22;6909;52.202;9.876;2022-07-29T01:37:29;15.30;1.00
13673;DHT22;6909;52.202;9.876;2022-07-29T01:40:00;15.20;1.00
13673;DHT22;6909;52.202;9.876;2022-07-29T01:42:31;15.20;1.00
13673;DHT22;6909;52.202;9.876;2022-07-29T01:45:12;15.00;1.00
13673;DHT22;6909;52.202;9.876;2022-07-29T01:47:44;15.00;1.00
13673;DHT22;6909;52.202;9.876;2022-07-29T01:50:15;15.00;1.00
13673;DHT22;6909;52.202;9.876;2022-07-29T01:52:46;15.00;1.00
13673;DHT22;6909;52.202;9.876;2022-07-29T01:55:15;15.00;1.00
13673;DHT22;6909;52.202;9.876;2022-07-29T01:57:45;15.00;1.00
13673;DHT22;6909;52.202;9.876;2022-07-29T02:00:15;15.00;1.00
13673;DHT22;6909;52.202;9.876;2022-07-29T02:02:44;14.90;1.00
13673;DHT22;6909;52.202;9.876;2022-07-29T02:05:14;14.80;1.00
13673;DHT22;6909;52.202;9.876;2022-07-29T02:07:43;14.80;1.00
13673;DHT22;6909;52.202;9.876;2022-07-29T02:10:11;14.60;1.00
13673;DHT22;6909;52.202;9.876;2022-07-29T02:12:39;14.40;1.00
13673;DHT22;6909;52.202;9.876;2022-07-29T02:15:08;14.40;1.00
13673;DHT22;6909;52.202;9.876;2022-07-29T02:17:41;14.50;1.00
13673;DHT22;6909;52.202;9.876;2022-07-29T02:20:09;14.60;1.00
13673;DHT22;6909;52.202;9.876;2022-07-29T02:22:39;14.50;1.00
13673;DHT22;6909;52.202;9.876;2022-07-29T02:25:07;14.60;1.00
13673;DHT22;6909;52.202;9.876;2022-07-29T02:27:35;14.50;1.00
13673;DHT22;6909;52.202;9.876;2022-07-29T02:30:04;14.50;1.00
13673;DHT22;6909;52.202;9.876;2022-07-29T02:32:34;14.60;1.00
13673;DHT22;6909;52.202;9.876;2022-07-29T02:35:03;14.80;1.00
13673;DHT22;6909;52.202;9.876;2022-07-29T02:37:31;14.90;1.00
13673;DHT22;6909;52.202;9.876;2022-07-29T02:39:59;14.90;1.00
13673;DHT22;6909;52.202;9.876;2022-07-29T02:42:27;14.90;1.00
13673;DHT22;6909;52.202;9.876;2022-07-29T02:44:54;14.90;1.00
13673;DHT22;6909;52.202;9.876;2022-07-29T02:47:24;14.70;1.00
13673;DHT22;6909;52.202;9.876;2022-07-29T02:49:57;14.70;1.00
13673;DHT22;6909;52.202;9.876;2022-07-29T02:52:32;14.50;1.00
13673;DHT22;6909;52.202;9.876;2022-07-29T02:55:07;14.60;1.00
13673;DHT22;6909;52.202;9.876;2022-07-29T02:57:42;14.50;1.00
13673;DHT22;6909;52.202;9.876;2022-07-29T03:00:10;14.70;1.00
13673;DHT22;6909;52.202;9.876;2022-07-29T03:02:39;14.80;1.00
13673;DHT22;6909;52.202;9.876;2022-07-29T03:05:11;14.80;1.00
13673;DHT22;6909;52.202;9.876;2022-07-29T03:07:41;14.90;1.00
13673;DHT22;6909;52.202;9.876;2022-07-29T03:10:09;14.90;1.00
13673;DHT22;6909;52.202;9.876;2022-07-29T03:12:36;14.90;1.00
13673;DHT22;6909;52.202;9.876;2022-07-29T03:15:04;14.90;1.00
13673;DHT22;6909;52.202;9.876;2022-07-29T03:17:32;14.80;1.00
13673;DHT22;6909;52.202;9.876;2022-07-29T03:19:59;14.80;1.00
13673;DHT22;6909;52.202;9.876;2022-07-29T03:22:26;14.70;1.00
13673;DHT22;6909;52.202;9.876;2022-07-29T03:24:54;14.70;1.00
13673;DHT22;6909;52.202;9.876;2022-07-29T03:27:21;14.60;1.00
13673;DHT22;6909;52.202;9.876;2022-07-29T03:29:48;14.60;1.00
13673;DHT22;6909;52.202;9.876;2022-07-29T03:32:14;14.60;1.00
13673;DHT22;6909;52.202;9.876;2022-07-29T03:34:41;14.60;1.00
13673;DHT22;6909;52.202;9.876;2022-07-29T03:37:08;14.60;1.00
13673;DHT22;6909;52.202;9.876;2022-07-29T03:39:38;14.50;1.00
13673;DHT22;6909;52.202;9.876;2022-07-29T03:42:08;14.60;1.00
13673;DHT22;6909;52.202;9.876;2022-07-29T03:44:37;14.60;1.00
13673;DHT22;6909;52.202;9.876;2022-07-29T03:47:06;14.60;1.00
13673;DHT22;6909;52.202;9.876;2022-07-29T03:49:36;14.50;1.00
13673;DHT22;6909;52.202;9.876;2022-07-29T03:52:04;14.50;1.00
13673;DHT22;6909;52.202;9.876;2022-07-29T03:54:31;14.50;1.00
13673;DHT22;6909;52.202;9.876;2022-07-29T03:56:59;14.50;1.00
13673;DHT22;6909;52.202;9.876;2022-07-29T03:59:27;14.50;1.00
13673;DHT22;6909;52.202;9.876;2022-07-29T04:01:55;14.50;1.00
13673;DHT22;6909;52.202;9.876;2022-07-29T04:04:23;14.50;1.00
13673;DHT22;6909;52.202;9.876;2022-07-29T04:06:50;14.50;1.00
13673;DHT22;6909;52.202;9.876;2022-07-29T04:09:16;14.50;1.00
13673;DHT22;6909;52.202;9.876;2022-07-29T04:11:43;14.50;1.00
13673;DHT22;6909;52.202;9.876;2022-07-29T04:14:11;14.50;1.00
13673;DHT22;6909;52.202;9.876;2022-07-29T04:16:39;14.60;1.00
13673;DHT22;6909;52.202;9.876;2022-07-29T04:19:05;14.60;1.00
13673;DHT22;6909;52.202;9.876;2022-07-29T04:21:37;14.60;1.00
13673;DHT22;6909;52.202;9.876;2022-07-29T04:24:04;14.50;1.00
13673;DHT22;6909;52.202;9.876;2022-07-29T04:26:30;14.50;1.00
13673;DHT22;6909;52.202;9.876;2022-07-29T04:28:57;14.50;1.00
13673;DHT22;6909;52.202;9.876;2022-07-29T04:31:24;14.50;1.00
13673;DHT22;6909;52.202;9.876;2022-07-29T04:33:52;14.50;1.00
13673;DHT22;6909;52.202;9.876;2022-07-29T04:36:18;14.60;1.00
13673;DHT22;6909;52.202;9.876;2022-07-29T04:38:45;14.60;1.00
13673;DHT22;6909;52.202;9.876;2022-07-29T04:41:11;14.60;1.00
13673;DHT22;6909;52.202;9.876;2022-07-29T04:43:38;14.60;1.00
13673;DHT22;6909;52.202;9.876;2022-07-29T04:46:06;14.60;1.00
13673;DHT22;6909;52.202;9.876;2022-07-29T04:48:33;14.60;1.00
13673;DHT22;6909;52.202;9.876;2022-07-29T04:51:01;14.60;1.00
13673;DHT22;6909;52.202;9.876;2022-07-29T04:53:28;14.60;1.00
13673;DHT22;6909;52.202;9.876;2022-07-29T04:55:55;14.70;1.00
13673;DHT22;6909;52.202;9.876;2022-07-29T04:58:21;14.70;1.00
13673;DHT22;6909;52.202;9.876;2022-07-29T05:00:49;14.70;1.00
13673;DHT22;6909;52.202;9.876;2022-07-29T05:03:16;14.80;1.00
13673;DHT22;6909;52.202;9.876;2022-07-29T05:05:42;14.90;1.00
13673;DHT22;6909;52.202;9.876;2022-07-29T05:08:10;14.90;1.00
13673;DHT22;6909;52.202;9.876;2022-07-29T05:10:37;15.00;1.00
13673;DHT22;6909;52.202;9.876;2022-07-29T05:13:04;15.10;1.00
13673;DHT22;6909;52.202;9.876;2022-07-29T05:15:32;15.10;1.00
13673;DHT22;6909;52.202;9.876;2022-07-29T05:17:58;15.30;1.00
13673;DHT22;6909;52.202;9.876;2022-07-29T05:20:25;15.20;1.00
13673;DHT22;6909;52.202;9.876;2022-07-29T05:22:53;15.10;1.00
13673;DHT22;6909;52.202;9.876;2022-07-29T05:25:21;15.00;1.00
13673;DHT22;6909;52.202;9.876;2022-07-29T05:27:48;15.00;1.00
13673;DHT22;6909;52.202;9.876;2022-07-29T05:30:15;15.20;1.00
13673;DHT22;6909;52.202;9.876;2022-07-29T05:32:41;15.30;1.00
13673;DHT22;6909;52.202;9.876;2022-07-29T05:35:08;15.60;1.00
13673;DHT22;6909;52.202;9.876;2022-07-29T05:37:35;15.80;1.00
13673;DHT22;6909;52.202;9.876;2022-07-29T05:40:02;15.90;1.00
13673;DHT22;6909;52.202;9.876;2022-07-29T05:42:30;16.20;1.00
13673;DHT22;6909;52.202;9.876;2022-07-29T05:44:57;16.40;1.00
13673;DHT22;6909;52.202;9.876;2022-07-29T05:47:23;16.50;1.00
13673;DHT22;6909;52.202;9.876;2022-07-29T05:49:50;16.50;1.00
13673;DHT22;6909;52.202;9.876;2022-07-29T05:52:17;16.40;1.00
13673;DHT22;6909;52.202;9.876;2022-07-29T05:54:44;16.30;1.00
13673;DHT22;6909;52.202;9.876;2022-07-29T05:57:15;16.10;1.00
13673;DHT22;6909;52.202;9.876;2022-07-29T05:59:43;16.10;1.00
13673;DHT22;6909;52.202;9.876;2022-07-29T06:02:09;16.00;1.00
13673;DHT22;6909;52.202;9.876;2022-07-29T06:04:36;16.00;1.00
13673;DHT22;6909;52.202;9.876;2022-07-29T06:07:04;16.00;1.00
13673;DHT22;6909;52.202;9.876;2022-07-29T06:09:31;16.20;1.00
13673;DHT22;6909;52.202;9.876;2022-07-29T06:11:57;16.20;1.00
13673;DHT22;6909;52.202;9.876;2022-07-29T06:14:24;16.20;1.00
13673;DHT22;6909;52.202;9.876;2022-07-29T06:16:53;16.30;1.00
13673;DHT22;6909;52.202;9.876;2022-07-29T06:19:19;16.50;1.00
13673;DHT22;6909;52.202;9.876;2022-07-29T06:21:46;16.70;1.00
13673;DHT22;6909;52.202;9.876;2022-07-29T06:24:14;17.30;1.00
13673;DHT22;6909;52.202;9.876;2022-07-29T06:26:41;17.80;1.00
13673;DHT22;6909;52.202;9.876;2022-07-29T06:29:09;18.30;1.00
13673;DHT22;6909;52.202;9.876;2022-07-29T06:31:37;17.90;1.00
13673;DHT22;6909;52.202;9.876;2022-07-29T06:34:05;17.40;1.00
13673;DHT22;6909;52.202;9.876;2022-07-29T06:36:34;17.60;1.00
13673;DHT22;6909;52.202;9.876;2022-07-29T06:39:01;17.70;1.00
13673;DHT22;6909;52.202;9.876;2022-07-29T06:41:27;17.70;1.00
13673;DHT22;6909;52.202;9.876;2022-07-29T06:43:54;17.80;1.00
13673;DHT22;6909;52.202;9.876;2022-07-29T06:46:21;17.60;1.00
13673;DHT22;6909;52.202;9.876;2022-07-29T06:48:48;17.80;1.00
13673;DHT22;6909;52.202;9.876;2022-07-29T06:51:17;17.90;1.00
13673;DHT22;6909;52.202;9.876;2022-07-29T06:53:44;18.10;1.00
13673;DHT22;6909;52.202;9.876;2022-07-29T06:56:10;18.30;1.00
13673;DHT22;6909;52.202;9.876;2022-07-29T06:58:39;18.30;1.00
13673;DHT22;6909;52.202;9.876;2022-07-29T07:01:06;18.40;1.00
13673;DHT22;6909;52.202;9.876;2022-07-29T07:03:33;18.40;1.00
13673;DHT22;6909;52.202;9.876;2022-07-29T07:05:59;18.40;1.00
13673;DHT22;6909;52.202;9.876;2022-07-29T07:08:27;18.30;1.00
13673;DHT22;6909;52.202;9.876;2022-07-29T07:10:54;18.30;1.00
13673;DHT22;6909;52.202;9.876;2022-07-29T07:13:22;18.30;1.00
13673;DHT22;6909;52.202;9.876;2022-07-29T07:15:49;18.20;1.00
13673;DHT22;6909;52.202;9.876;2022-07-29T07:18:17;18.20;1.00
13673;DHT22;6909;52.202;9.876;2022-07-29T07:20:44;18.20;1.00
13673;DHT22;6909;52.202;9.876;2022-07-29T07:23:11;18.40;1.00
13673;DHT22;6909;52.202;9.876;2022-07-29T07:25:39;18.50;1.00
13673;DHT22;6909;52.202;9.876;2022-07-29T07:28:07;18.60;1.00
13673;DHT22;6909;52.202;9.876;2022-07-29T07:30:34;18.80;1.00
13673;DHT22;6909;52.202;9.876;2022-07-29T07:33:03;18.90;1.00
13673;DHT22;6909;52.202;9.876;2022-07-29T07:35:30;19.00;1.00
13673;DHT22;6909;52.202;9.876;2022-07-29T07:37:57;18.90;1.00
13673;DHT22;6909;52.202;9.876;2022-07-29T07:40:24;19.10;1.00
13673;DHT22;6909;52.202;9.876;2022-07-29T07:42:52;19.20;1.00
13673;DHT22;6909;52.202;9.876;2022-07-29T07:45:18;19.20;1.00
13673;DHT22;6909;52.202;9.876;2022-07-29T07:47:45;19.50;1.00
13673;DHT22;6909;52.202;9.876;2022-07-29T07:50:12;19.70;1.00
13673;DHT22;6909;52.202;9.876;2022-07-29T07:52:46;19.70;1.00
13673;DHT22;6909;52.202;9.876;2022-07-29T07:55:14;19.40;1.00
13673;DHT22;6909;52.202;9.876;2022-07-29T07:57:40;19.30;1.00
13673;DHT22;6909;52.202;9.876;2022-07-29T08:00:09;19.50;1.00
13673;DHT22;6909;52.202;9.876;2022-07-29T08:02:37;20.20;1.00
13673;DHT22;6909;52.202;9.876;2022-07-29T08:05:05;20.50;1.00
13673;DHT22;6909;52.202;9.876;2022-07-29T08:07:31;20.50;1.00
13673;DHT22;6909;52.202;9.876;2022-07-29T08:09:58;20.60;1.00
13673;DHT22;6909;52.202;9.876;2022-07-29T08:12:25;20.90;1.00
13673;DHT22;6909;52.202;9.876;2022-07-29T08:14:51;20.90;1.00
13673;DHT22;6909;52.202;9.876;2022-07-29T08:17:19;20.50;1.00
13673;DHT22;6909;52.202;9.876;2022-07-29T08:19:46;20.10;1.00
13673;DHT22;6909;52.202;9.876;2022-07-29T08:22:13;19.90;1.00
13673;DHT22;6909;52.202;9.876;2022-07-29T08:24:40;19.80;1.00
13673;DHT22;6909;52.202;9.876;2022-07-29T08:27:12;19.60;1.00
13673;DHT22;6909;52.202;9.876;2022-07-29T08:29:39;20.00;1.00
13673;DHT22;6909;52.202;9.876;2022-07-29T08:32:06;19.90;1.00
13673;DHT22;6909;52.202;9.876;2022-07-29T08:34:34;20.10;1.00
13673;DHT22;6909;52.202;9.876;2022-07-29T08:37:01;20.30;1.00
13673;DHT22;6909;52.202;9.876;2022-07-29T08:39:27;20.10;1.00
13673;DHT22;6909;52.202;9.876;2022-07-29T08:41:54;20.30;1.00
13673;DHT22;6909;52.202;9.876;2022-07-29T08:44:21;20.20;1.00
13673;DHT22;6909;52.202;9.876;2022-07-29T08:46:48;20.30;1.00
13673;DHT22;6909;52.202;9.876;2022-07-29T08:49:15;20.50;1.00
13673;DHT22;6909;52.202;9.876;2022-07-29T08:51:43;20.40;1.00
13673;DHT22;6909;52.202;9.876;2022-07-29T08:54:10;20.30;1.00
13673;DHT22;6909;52.202;9.876;2022-07-29T08:56:38;20.30;1.00
13673;DHT22;6909;52.202;9.876;2022-07-29T08:59:08;20.40;1.00
13673;DHT22;6909;52.202;9.876;2022-07-29T09:01:37;20.40;1.00
13673;DHT22;6909;52.202;9.876;2022-07-29T09:04:10;20.70;1.00
13673;DHT22;6909;52.202;9.876;2022-07-29T09:06:39;21.00;1.00
13673;DHT22;6909;52.202;9.876;2022-07-29T09:09:07;21.20;1.00
13673;DHT22;6909;52.202;9.876;2022-07-29T09:11:34;21.50;1.00
13673;DHT22;6909;52.202;9.876;2022-07-29T09:14:11;22.20;1.00
13673;DHT22;6909;52.202;9.876;2022-07-29T09:16:49;22.60;1.00
13673;DHT22;6909;52.202;9.876;2022-07-29T09:19:29;23.10;1.00
13673;DHT22;6909;52.202;9.876;2022-07-29T09:21:58;22.80;1.00
13673;DHT22;6909;52.202;9.876;2022-07-29T09:24:35;22.60;1.00
13673;DHT22;6909;52.202;9.876;2022-07-29T09:27:08;22.40;1.00
13673;DHT22;6909;52.202;9.876;2022-07-29T09:29:35;22.10;1.00
13673;DHT22;6909;52.202;9.876;2022-07-29T09:32:06;22.30;1.00
13673;DHT22;6909;52.202;9.876;2022-07-29T09:34:33;22.20;1.00
13673;DHT22;6909;52.202;9.876;2022-07-29T09:37:00;22.30;1.00
13673;DHT22;6909;52.202;9.876;2022-07-29T09:39:30;22.60;1.00
13673;DHT22;6909;52.202;9.876;2022-07-29T09:41:58;22.50;1.00
13673;DHT22;6909;52.202;9.876;2022-07-29T09:44:25;22.40;1.00
13673;DHT22;6909;52.202;9.876;2022-07-29T09:46:54;22.70;1.00
13673;DHT22;6909;52.202;9.876;2022-07-29T09:49:24;22.90;1.00
13673;DHT22;6909;52.202;9.876;2022-07-29T09:52:05;23.00;1.00
13673;DHT22;6909;52.202;9.876;2022-07-29T09:54:34;22.30;1.00
13673;DHT22;6909;52.202;9.876;2022-07-29T09:57:03;22.40;1.00
13673;DHT22;6909;52.202;9.876;2022-07-29T09:59:31;22.70;1.00
13673;DHT22;6909;52.202;9.876;2022-07-29T10:01:58;22.70;1.00
13673;DHT22;6909;52.202;9.876;2022-07-29T10:04:36;22.90;1.00
13673;DHT22;6909;52.202;9.876;2022-07-29T10:07:04;23.10;1.00
13673;DHT22;6909;52.202;9.876;2022-07-29T10:09:31;22.80;1.00
13673;DHT22;6909;52.202;9.876;2022-07-29T10:12:10;22.70;1.00
13673;DHT22;6909;52.202;9.876;2022-07-29T10:14:39;22.80;1.00
13673;DHT22;6909;52.202;9.876;2022-07-29T10:17:07;22.90;1.00
13673;DHT22;6909;52.202;9.876;2022-07-29T10:19:36;22.90;1.00
13673;DHT22;6909;52.202;9.876;2022-07-29T10:22:06;22.90;1.00
13673;DHT22;6909;52.202;9.876;2022-07-29T10:24:34;23.10;1.00
13673;DHT22;6909;52.202;9.876;2022-07-29T10:27:02;23.60;1.00
13673;DHT22;6909;52.202;9.876;2022-07-29T10:29:30;23.70;1.00
13673;DHT22;6909;52.202;9.876;2022-07-29T10:32:08;23.40;1.00
13673;DHT22;6909;52.202;9.876;2022-07-29T10:35:00;23.30;1.00
13673;DHT22;6909;52.202;9.876;2022-07-29T10:37:35;23.30;1.00
13673;DHT22;6909;52.202;9.876;2022-07-29T10:40:14;23.60;1.00
13673;DHT22;6909;52.202;9.876;2022-07-29T10:43:14;24.00;1.00
13673;DHT22;6909;52.202;9.876;2022-07-29T10:45:44;24.00;1.00
13673;DHT22;6909;52.202;9.876;2022-07-29T10:48:12;24.10;1.00
13673;DHT22;6909;52.202;9.876;2022-07-29T10:50:52;24.00;1.00
13673;DHT22;6909;52.202;9.876;2022-07-29T10:53:20;24.10;1.00
13673;DHT22;6909;52.202;9.876;2022-07-29T10:55:46;23.90;1.00
13673;DHT22;6909;52.202;9.876;2022-07-29T10:58:16;23.90;1.00
13673;DHT22;6909;52.202;9.876;2022-07-29T11:00:45;23.70;1.00
13673;DHT22;6909;52.202;9.876;2022-07-29T11:03:44;23.60;1.00
13673;DHT22;6909;52.202;9.876;2022-07-29T11:06:12;23.60;1.00
13673;DHT22;6909;52.202;9.876;2022-07-29T11:08:39;23.70;1.00
13673;DHT22;6909;52.202;9.876;2022-07-29T11:11:36;23.40;1.00
13673;DHT22;6909;52.202;9.876;2022-07-29T11:14:06;23.70;1.00
13673;DHT22;6909;52.202;9.876;2022-07-29T11:16:59;23.70;1.00
13673;DHT22;6909;52.202;9.876;2022-07-29T11:19:27;23.70;1.00
13673;DHT22;6909;52.202;9.876;2022-07-29T11:21:54;23.70;1.00
13673;DHT22;6909;52.202;9.876;2022-07-29T11:24:22;23.60;1.00
13673;DHT22;6909;52.202;9.876;2022-07-29T11:27:13;23.50;1.00
13673;DHT22;6909;52.202;9.876;2022-07-29T11:29:48;23.70;1.00
13673;DHT22;6909;52.202;9.876;2022-07-29T11:32:17;23.90;1.00
13673;DHT22;6909;52.202;9.876;2022-07-29T11:34:46;24.00;1.00
13673;DHT22;6909;52.202;9.876;2022-07-29T11:37:20;24.10;1.00
13673;DHT22;6909;52.202;9.876;2022-07-29T11:40:10;23.90;1.00
13673;DHT22;6909;52.202;9.876;2022-07-29T11:42:45;24.00;1.00
13673;DHT22;6909;52.202;9.876;2022-07-29T11:45:18;24.00;1.00
13673;DHT22;6909;52.202;9.876;2022-07-29T11:47:50;24.00;1.00
13673;DHT22;6909;52.202;9.876;2022-07-29T11:50:27;24.20;1.00
13673;DHT22;6909;52.202;9.876;2022-07-29T11:52:54;24.10;1.00
13673;DHT22;6909;52.202;9.876;2022-07-29T11:55:23;24.20;1.00
13673;DHT22;6909;52.202;9.876;2022-07-29T11:57:52;24.20;1.00
13673;DHT22;6909;52.202;9.876;2022-07-29T12:00:34;24.10;1.00
13673;DHT22;6909;52.202;9.876;2022-07-29T12:03:03;24.30;1.00
13673;DHT22;6909;52.202;9.876;2022-07-29T12:05:32;24.50;1.00
13673;DHT22;6909;52.202;9.876;2022-07-29T12:10:52;24.30;1.00
13673;DHT22;6909;52.202;9.876;2022-07-29T12:13:20;24.70;1.00
13673;DHT22;6909;52.202;9.876;2022-07-29T12:15:53;24.80;1.00
13673;DHT22;6909;52.202;9.876;2022-07-29T12:18:20;25.00;1.00
13673;DHT22;6909;52.202;9.876;2022-07-29T12:20:48;25.10;1.00
13673;DHT22;6909;52.202;9.876;2022-07-29T12:23:15;25.10;1.00
13673;DHT22;6909;52.202;9.876;2022-07-29T12:25:43;25.10;1.00
13673;DHT22;6909;52.202;9.876;2022-07-29T12:28:13;25.10;1.00
13673;DHT22;6909;52.202;9.876;2022-07-29T12:30:43;25.20;1.00
13673;DHT22;6909;52.202;9.876;2022-07-29T12:33:15;25.20;1.00
13673;DHT22;6909;52.202;9.876;2022-07-29T12:35:44;25.10;1.00
13673;DHT22;6909;52.202;9.876;2022-07-29T12:38:11;25.20;1.00
13673;DHT22;6909;52.202;9.876;2022-07-29T12:40:39;25.30;1.00
13673;DHT22;6909;52.202;9.876;2022-07-29T12:43:12;25.30;1.00
13673;DHT22;6909;52.202;9.876;2022-07-29T12:45:41;25.50;1.00
13673;DHT22;6909;52.202;9.876;2022-07-29T12:48:09;25.30;1.00
13673;DHT22;6909;52.202;9.876;2022-07-29T12:50:36;25.50;1.00
13673;DHT22;6909;52.202;9.876;2022-07-29T12:53:11;25.60;1.00
13673;DHT22;6909;52.202;9.876;2022-07-29T12:55:42;25.60;1.00
13673;DHT22;6909;52.202;9.876;2022-07-29T12:58:09;25.60;1.00
13673;DHT22;6909;52.202;9.876;2022-07-29T13:00:37;25.60;1.00
13673;DHT22;6909;52.202;9.876;2022-07-29T13:03:04;25.50;1.00
13673;DHT22;6909;52.202;9.876;2022-07-29T13:05:42;25.70;1.00
13673;DHT22;6909;52.202;9.876;2022-07-29T13:08:13;25.80;1.00
13673;DHT22;6909;52.202;9.876;2022-07-29T13:10:40;25.60;1.00
13673;DHT22;6909;52.202;9.876;2022-07-29T13:13:08;25.40;1.00
13673;DHT22;6909;52.202;9.876;2022-07-29T13:15:37;25.60;1.00
13673;DHT22;6909;52.202;9.876;2022-07-29T13:18:05;25.60;1.00
13673;DHT22;6909;52.202;9.876;2022-07-29T13:20:52;25.50;1.00
13673;DHT22;6909;52.202;9.876;2022-07-29T13:23:18;25.60;1.00
13673;DHT22;6909;52.202;9.876;2022-07-29T13:25:45;25.60;1.00
13673;DHT22;6909;52.202;9.876;2022-07-29T13:28:12;25.80;1.00
13673;DHT22;6909;52.202;9.876;2022-07-29T13:30:40;25.40;1.00
13673;DHT22;6909;52.202;9.876;2022-07-29T13:33:07;25.50;1.00
13673;DHT22;6909;52.202;9.876;2022-07-29T13:35:34;25.30;1.00
13673;DHT22;6909;52.202;9.876;2022-07-29T13:38:00;25.50;1.00
13673;DHT22;6909;52.202;9.876;2022-07-29T13:40:27;25.60;1.00
13673;DHT22;6909;52.202;9.876;2022-07-29T13:42:55;25.80;1.00
13673;DHT22;6909;52.202;9.876;2022-07-29T13:45:21;25.80;1.00
13673;DHT22;6909;52.202;9.876;2022-07-29T13:47:49;25.80;1.00
13673;DHT22;6909;52.202;9.876;2022-07-29T13:50:16;25.70;1.00
13673;DHT22;6909;52.202;9.876;2022-07-29T13:52:42;25.60;1.00
13673;DHT22;6909;52.202;9.876;2022-07-29T13:55:09;25.90;1.00
13673;DHT22;6909;52.202;9.876;2022-07-29T13:57:36;26.10;1.00
13673;DHT22;6909;52.202;9.876;2022-07-29T14:00:03;26.40;1.00
13673;DHT22;6909;52.202;9.876;2022-07-29T14:02:30;26.70;1.00
13673;DHT22;6909;52.202;9.876;2022-07-29T14:04:59;26.90;1.00
13673;DHT22;6909;52.202;9.876;2022-07-29T14:07:26;27.10;1.00
13673;DHT22;6909;52.202;9.876;2022-07-29T14:09:52;27.00;1.00
13673;DHT22;6909;52.202;9.876;2022-07-29T14:12:19;27.10;1.00
13673;DHT22;6909;52.202;9.876;2022-07-29T14:14:46;27.00;1.00
13673;DHT22;6909;52.202;9.876;2022-07-29T14:17:13;27.00;1.00
13673;DHT22;6909;52.202;9.876;2022-07-29T14:19:40;26.90;1.00
13673;DHT22;6909;52.202;9.876;2022-07-29T14:22:08;26.70;1.00
13673;DHT22;6909;52.202;9.876;2022-07-29T14:24:36;26.90;1.00
13673;DHT22;6909;52.202;9.876;2022-07-29T14:27:03;26.80;1.00
13673;DHT22;6909;52.202;9.876;2022-07-29T14:29:31;26.60;1.00
13673;DHT22;6909;52.202;9.876;2022-07-29T14:31:57;26.30;1.00
13673;DHT22;6909;52.202;9.876;2022-07-29T14:34:24;26.30;1.00
13673;DHT22;6909;52.202;9.876;2022-07-29T14:36:51;26.50;1.00
13673;DHT22;6909;52.202;9.876;2022-07-29T14:39:22;26.60;1.00
13673;DHT22;6909;52.202;9.876;2022-07-29T14:41:49;26.70;1.00
13673;DHT22;6909;52.202;9.876;2022-07-29T14:44:16;26.60;1.00
13673;DHT22;6909;52.202;9.876;2022-07-29T14:46:43;26.50;1.00
13673;DHT22;6909;52.202;9.876;2022-07-29T14:49:09;26.70;1.00
13673;DHT22;6909;52.202;9.876;2022-07-29T14:51:36;26.90;1.00
13673;DHT22;6909;52.202;9.876;2022-07-29T14:54:03;27.10;1.00
13673;DHT22;6909;52.202;9.876;2022-07-29T14:56:31;26.70;1.00
13673;DHT22;6909;52.202;9.876;2022-07-29T14:58:58;27.20;1.00
13673;DHT22;6909;52.202;9.876;2022-07-29T15:01:24;26.70;1.00
13673;DHT22;6909;52.202;9.876;2022-07-29T15:03:51;26.70;1.00
13673;DHT22;6909;52.202;9.876;2022-07-29T15:06:18;26.50;1.00
13673;DHT22;6909;52.202;9.876;2022-07-29T15:08:45;26.20;1.00
13673;DHT22;6909;52.202;9.876;2022-07-29T15:11:11;26.20;1.00
13673;DHT22;6909;52.202;9.876;2022-07-29T15:13:39;26.10;1.00
13673;DHT22;6909;52.202;9.876;2022-07-29T15:16:06;26.20;1.00
13673;DHT22;6909;52.202;9.876;2022-07-29T15:18:33;26.10;1.00
13673;DHT22;6909;52.202;9.876;2022-07-29T15:20:59;26.30;1.00
13673;DHT22;6909;52.202;9.876;2022-07-29T15:23:27;26.30;1.00
13673;DHT22;6909;52.202;9.876;2022-07-29T15:25:54;26.50;1.00
13673;DHT22;6909;52.202;9.876;2022-07-29T15:28:20;26.50;1.00
13673;DHT22;6909;52.202;9.876;2022-07-29T15:30:48;26.50;1.00
13673;DHT22;6909;52.202;9.876;2022-07-29T15:33:15;26.50;1.00
13673;DHT22;6909;52.202;9.876;2022-07-29T15:35:42;26.60;1.00
13673;DHT22;6909;52.202;9.876;2022-07-29T15:38:08;26.30;1.00
13673;DHT22;6909;52.202;9.876;2022-07-29T15:40:36;26.10;1.00
13673;DHT22;6909;52.202;9.876;2022-07-29T15:43:04;26.20;1.00
13673;DHT22;6909;52.202;9.876;2022-07-29T15:45:35;26.20;1.00
13673;DHT22;6909;52.202;9.876;2022-07-29T15:48:05;26.20;1.00
13673;DHT22;6909;52.202;9.876;2022-07-29T15:50:33;26.20;1.00
13673;DHT22;6909;52.202;9.876;2022-07-29T15:53:00;26.30;1.00
13673;DHT22;6909;52.202;9.876;2022-07-29T15:55:27;26.20;1.00
13673;DHT22;6909;52.202;9.876;2022-07-29T15:57:53;26.20;1.00
13673;DHT22;6909;52.202;9.876;2022-07-29T16:00:20;26.30;1.00
13673;DHT22;6909;52.202;9.876;2022-07-29T16:02:48;26.30;1.00
13673;DHT22;6909;52.202;9.876;2022-07-29T16:05:16;26.10;1.00
13673;DHT22;6909;52.202;9.876;2022-07-29T16:07:45;26.10;1.00
13673;DHT22;6909;52.202;9.876;2022-07-29T16:10:12;26.10;1.00
13673;DHT22;6909;52.202;9.876;2022-07-29T16:12:39;26.00;1.00
13673;DHT22;6909;52.202;9.876;2022-07-29T16:15:06;26.10;1.00